Time;durP1;ratioP1;P1;durP2;ratioP2;P2;SDS_P1;SDS_P2;PMS_P1;PMS_P2;Temp;Humidity;BMP_temperature;BMP_pressure;BME280_temperature;BME280_humidity;BME280_pressure;Samples;Min_cycle;Max_cycle;Signal;HPM_P1;HPM_P2
2021/01/05 00:00:11;;;;;;;38.95;17.10;;;;;;;;;;5028356;28;20033;-53
2021/01/05 00:02:37;;;;;;;40.00;16.95;;;;;;;;;;5028465;28;20040;-49
2021/01/05 00:05:03;;;;;;;31.88;15.40;;;;;;;;;;5016155;28;20038;-53
2021/01/05 00:07:29;;;;;;;33.22;15.70;;;;;;;;;;5017145;28;20079;-49
2021/01/05 00:09:55;;;;;;;34.30;17.08;;;;;;;;;;5026893;28;20037;-49
2021/01/05 00:12:21;;;;;;;38.90;16.02;;;;;;;;;;5027698;28;20029;-52
2021/01/05 00:14:48;;;;;;;39.97;17.67;;;;;;;;;;5026351;28;20381;-49
2021/01/05 00:17:16;;;;;;;39.60;17.23;;;;;;;;;;5026725;28;20041;-55
2021/01/05 00:19:42;;;;;;;43.38;17.90;;;;;;;;;;5027997;28;20108;-53
2021/01/05 00:22:08;;;;;;;40.00;17.45;;;;;;;;;;5028015;28;20509;-53
2021/01/05 00:24:34;;;;;;;36.45;15.63;;;;;;;;;;5023512;28;20025;-54
2021/01/05 00:27:01;;;;;;;38.20;16.52;;;;;;;;;;5027941;28;20535;-53
2021/01/05 00:29:27;;;;;;;35.25;17.05;;;;;;;;;;5027266;28;20071;-49
2021/01/05 00:32:25;;;;;;;36.05;17.20;;;;;;;;;;5027003;28;20026;-51
2021/01/05 00:34:52;;;;;;;42.35;17.00;;;;;;;;;;5001081;28;20041;-54
2021/01/05 00:37:19;;;;;;;42.08;17.25;;;;;;;;;;5027814;28;20025;-55
2021/01/05 00:39:45;;;;;;;41.67;16.88;;;;;;;;;;5027083;28;20346;-51
2021/01/05 00:42:11;;;;;;;36.38;17.88;;;;;;;;;;5027248;28;20068;-52
2021/01/05 00:44:37;;;;;;;38.70;17.25;;;;;;;;;;5027412;28;20075;-54
2021/01/05 00:47:03;;;;;;;42.45;17.90;;;;;;;;;;5009798;28;20040;-50
2021/01/05 00:49:29;;;;;;;41.88;17.58;;;;;;;;;;5023992;28;20030;-53
2021/01/05 00:51:55;;;;;;;38.47;17.85;;;;;;;;;;5027550;28;20049;-54
2021/01/05 00:54:21;;;;;;;37.75;16.40;;;;;;;;;;5014918;28;20493;-51
2021/01/05 00:57:05;;;;;;;37.53;17.17;;;;;;;;;;5016554;28;20168;-54
2021/01/05 00:59:31;;;;;;;44.75;18.05;;;;;;;;;;5025939;28;20025;-49
2021/01/05 01:01:57;;;;;;;38.30;17.55;;;;;;;;;;5026990;28;20021;-55
2021/01/05 01:04:23;;;;;;;35.50;16.35;;;;;;;;;;5027508;28;20363;-54
2021/01/05 01:06:50;;;;;;;36.08;16.77;;;;;;;;;;5026844;28;20033;-55
2021/01/05 01:09:16;;;;;;;35.38;16.13;;;;;;;;;;5013577;28;20017;-52
2021/01/05 01:11:58;;;;;;;38.65;17.92;;;;;;;;;;5026929;28;20124;-55
2021/01/05 01:14:24;;;;;;;32.85;15.45;;;;;;;;;;5026431;28;20549;-55
2021/01/05 01:16:50;;;;;;;38.08;17.70;;;;;;;;;;5027431;28;20025;-49
2021/01/05 01:19:16;;;;;;;36.42;16.27;;;;;;;;;;5025675;28;20030;-49
2021/01/05 01:21:44;;;;;;;44.22;16.75;;;;;;;;;;5026025;28;20037;-53
2021/01/05 01:24:10;;;;;;;41.10;16.98;;;;;;;;;;5024919;28;20030;-51
2021/01/05 01:26:36;;;;;;;36.10;15.82;;;;;;;;;;5026968;28;20033;-49
2021/01/05 01:29:02;;;;;;;33.13;15.25;;;;;;;;;;5027051;28;20056;-55
2021/01/05 01:31:29;;;;;;;38.13;17.05;;;;;;;;;;5026232;28;20040;-49
2021/01/05 01:33:55;;;;;;;38.58;16.17;;;;;;;;;;5027487;28;20025;-51
2021/01/05 01:36:21;;;;;;;33.38;15.63;;;;;;;;;;5026690;28;20052;-54
2021/01/05 01:38:46;;;;;;;33.35;15.77;;;;;;;;;;5026467;28;20025;-51
2021/01/05 01:41:12;;;;;;;38.85;16.77;;;;;;;;;;5026347;28;20052;-53
2021/01/05 01:43:38;;;;;;;26.17;14.07;;;;;;;;;;5025584;28;20037;-52
2021/01/05 01:46:04;;;;;;;31.50;15.27;;;;;;;;;;5026487;28;20037;-50
2021/01/05 01:48:30;;;;;;;31.83;14.38;;;;;;;;;;5024896;28;20033;-51
2021/01/05 01:50:58;;;;;;;34.75;16.02;;;;;;;;;;5027230;28;20646;-54
2021/01/05 01:53:33;;;;;;;30.67;15.55;;;;;;;;;;5022443;28;20026;-51
2021/01/05 01:56:12;;;;;;;32.03;14.63;;;;;;;;;;5026518;28;20039;-49
2021/01/05 01:58:54;;;;;;;34.60;15.68;;;;;;;;;;5027059;28;20025;-50
2021/01/05 02:01:30;;;;;;;28.40;14.98;;;;;;;;;;5026386;28;20026;-56
2021/01/05 02:04:00;;;;;;;32.38;15.05;;;;;;;;;;5025474;28;20038;-49
2021/01/05 02:06:44;;;;;;;30.95;16.13;;;;;;;;;;5026400;28;20051;-56
2021/01/05 02:09:26;;;;;;;31.25;16.70;;;;;;;;;;5025764;28;20037;-52
2021/01/05 02:12:07;;;;;;;32.97;15.88;;;;;;;;;;5027261;28;20013;-52
2021/01/05 02:14:40;;;;;;;34.05;15.13;;;;;;;;;;5019031;28;20030;-55
2021/01/05 02:17:26;;;;;;;31.90;15.65;;;;;;;;;;5025083;28;20039;-54
2021/01/05 02:19:55;;;;;;;30.88;15.13;;;;;;;;;;5026712;28;20043;-49
2021/01/05 02:22:26;;;;;;;32.35;15.57;;;;;;;;;;5026535;28;20033;-51
2021/01/05 02:25:18;;;;;;;30.30;15.07;;;;;;;;;;5016759;28;20392;-51
2021/01/05 02:27:46;;;;;;;30.48;15.27;;;;;;;;;;5009914;28;20123;-55
2021/01/05 02:30:14;;;;;;;28.80;14.60;;;;;;;;;;5029310;28;20041;-52
2021/01/05 02:32:51;;;;;;;34.47;15.93;;;;;;;;;;5030103;28;20029;-52
2021/01/05 02:35:21;;;;;;;27.95;14.52;;;;;;;;;;5030169;28;20037;-49
2021/01/05 02:37:55;;;;;;;29.45;15.15;;;;;;;;;;5030167;28;20033;-54
2021/01/05 02:40:24;;;;;;;33.25;15.80;;;;;;;;;;5029185;28;20044;-53
2021/01/05 02:43:08;;;;;;;31.35;16.38;;;;;;;;;;5029774;28;20045;-55
2021/01/05 02:45:40;;;;;;;31.48;15.77;;;;;;;;;;5029515;28;20983;-51
2021/01/05 02:48:25;;;;;;;36.03;16.45;;;;;;;;;;5029555;28;20564;-52
2021/01/05 02:51:09;;;;;;;36.58;17.30;;;;;;;;;;5029045;28;20033;-50
2021/01/05 02:54:05;;;;;;;32.53;16.30;;;;;;;;;;5023811;28;20044;-53
2021/01/05 02:56:43;;;;;;;31.17;14.95;;;;;;;;;;4969614;28;20035;-49
2021/01/05 02:59:25;;;;;;;31.20;15.30;;;;;;;;;;5029879;28;20041;-54
2021/01/05 03:02:14;;;;;;;29.08;15.18;;;;;;;;;;5027791;28;20051;-55
2021/01/05 03:04:40;;;;;;;31.88;14.68;;;;;;;;;;5010337;28;20030;-51
2021/01/05 03:07:12;;;;;;;30.40;15.15;;;;;;;;;;5017102;28;20098;-52
2021/01/05 03:09:57;;;;;;;31.13;14.75;;;;;;;;;;5010011;28;20905;-51
2021/01/05 03:12:42;;;;;;;33.42;14.65;;;;;;;;;;5028247;28;20045;-52
2021/01/05 03:15:08;;;;;;;28.55;14.60;;;;;;;;;;5029162;28;20099;-51
2021/01/05 03:17:39;;;;;;;31.45;15.10;;;;;;;;;;5028951;28;20671;-53
2021/01/05 03:20:05;;;;;;;29.33;14.60;;;;;;;;;;5029309;28;20029;-51
2021/01/05 03:22:34;;;;;;;29.88;15.45;;;;;;;;;;5028803;28;20120;-49
2021/01/05 03:25:02;;;;;;;30.83;15.20;;;;;;;;;;5022519;28;20040;-53
2021/01/05 03:27:28;;;;;;;28.55;15.35;;;;;;;;;;5028700;28;20033;-55
2021/01/05 03:29:55;;;;;;;30.00;14.52;;;;;;;;;;5029231;28;20030;-52
2021/01/05 03:32:21;;;;;;;29.75;15.57;;;;;;;;;;5025933;28;20418;-49
2021/01/05 03:34:47;;;;;;;30.63;14.95;;;;;;;;;;5044123;28;20049;-51
2021/01/05 03:37:13;;;;;;;29.02;15.40;;;;;;;;;;5041747;28;20461;-49
2021/01/05 03:39:39;;;;;;;33.17;15.13;;;;;;;;;;5027368;28;20079;-54
2021/01/05 03:42:05;;;;;;;30.77;15.35;;;;;;;;;;5028283;28;20053;-52
2021/01/05 03:44:33;;;;;;;28.40;14.40;;;;;;;;;;5028963;28;20037;-51
2021/01/05 03:46:59;;;;;;;31.45;14.85;;;;;;;;;;5028640;28;20025;-50
2021/01/05 03:49:25;;;;;;;29.85;14.32;;;;;;;;;;5027843;28;20040;-50
2021/01/05 03:51:51;;;;;;;28.42;14.43;;;;;;;;;;5028823;28;20021;-49
2021/01/05 03:54:17;;;;;;;23.65;13.05;;;;;;;;;;5016385;28;20045;-49
2021/01/05 03:56:43;;;;;;;25.30;13.20;;;;;;;;;;5023218;28;20458;-54
2021/01/05 03:59:09;;;;;;;25.58;13.63;;;;;;;;;;5027527;28;20026;-49
2021/01/05 04:01:35;;;;;;;28.92;13.65;;;;;;;;;;5028417;28;20060;-55
2021/01/05 04:04:01;;;;;;;26.70;13.77;;;;;;;;;;5028151;28;20025;-54
2021/01/05 04:06:27;;;;;;;25.83;14.00;;;;;;;;;;5028279;28;20107;-50
2021/01/05 04:08:54;;;;;;;27.65;13.88;;;;;;;;;;5028566;28;20075;-52
2021/01/05 04:11:20;;;;;;;23.35;12.85;;;;;;;;;;5027490;28;20045;-51
2021/01/05 04:13:46;;;;;;;30.60;13.90;;;;;;;;;;5028294;28;20034;-49
2021/01/05 04:16:12;;;;;;;27.67;13.48;;;;;;;;;;5027611;28;20639;-55
2021/01/05 04:18:38;;;;;;;25.50;13.20;;;;;;;;;;5028244;28;20499;-49
2021/01/05 04:21:04;;;;;;;27.45;14.00;;;;;;;;;;5027758;28;20025;-51
2021/01/05 04:23:30;;;;;;;28.40;13.73;;;;;;;;;;5022562;28;20030;-53
2021/01/05 04:25:56;;;;;;;24.10;13.13;;;;;;;;;;5016304;28;20370;-53
2021/01/05 04:28:22;;;;;;;30.40;14.65;;;;;;;;;;5027808;28;20559;-53
2021/01/05 04:30:48;;;;;;;25.98;13.77;;;;;;;;;;5027395;28;20044;-52
2021/01/05 04:33:14;;;;;;;26.17;13.82;;;;;;;;;;5029753;28;20029;-54
2021/01/05 04:35:40;;;;;;;24.08;11.70;;;;;;;;;;5048053;28;20035;-55
2021/01/05 04:38:06;;;;;;;24.45;13.27;;;;;;;;;;5035368;28;20025;-53
2021/01/05 04:40:34;;;;;;;26.95;13.05;;;;;;;;;;5026046;28;20049;-50
2021/01/05 04:43:09;;;;;;;23.95;12.35;;;;;;;;;;5027599;28;20346;-50
2021/01/05 04:45:39;;;;;;;23.80;12.32;;;;;;;;;;5027194;28;20049;-53
2021/01/05 04:48:13;;;;;;;22.75;11.93;;;;;;;;;;5027936;28;20700;-53
2021/01/05 04:50:42;;;;;;;24.25;11.88;;;;;;;;;;5027060;28;20071;-54
2021/01/05 04:53:18;;;;;;;22.35;11.80;;;;;;;;;;5024297;28;20030;-52
2021/01/05 04:56:02;;;;;;;24.80;12.50;;;;;;;;;;5027566;28;20048;-52
2021/01/05 04:58:34;;;;;;;19.70;11.48;;;;;;;;;;5027255;28;20043;-50
2021/01/05 05:01:02;;;;;;;23.15;11.77;;;;;;;;;;5026563;28;20044;-54
2021/01/05 05:03:28;;;;;;;24.70;12.27;;;;;;;;;;5027560;28;20048;-49
2021/01/05 05:06:13;;;;;;;22.67;12.13;;;;;;;;;;5027417;28;20045;-53
2021/01/05 05:08:47;;;;;;;22.35;11.80;;;;;;;;;;5027111;28;20033;-51
2021/01/05 05:11:15;;;;;;;20.35;11.13;;;;;;;;;;5026935;28;20029;-54
2021/01/05 05:13:47;;;;;;;24.48;12.48;;;;;;;;;;5027269;28;20026;-50
2021/01/05 05:16:18;;;;;;;24.25;12.23;;;;;;;;;;5026992;28;20041;-52
2021/01/05 05:18:50;;;;;;;20.95;12.45;;;;;;;;;;5026675;28;20037;-49
2021/01/05 05:21:22;;;;;;;20.35;12.23;;;;;;;;;;5027141;28;20025;-47
2021/01/05 05:23:53;;;;;;;18.55;10.60;;;;;;;;;;5020145;28;20041;-47
2021/01/05 05:26:26;;;;;;;22.95;12.40;;;;;;;;;;5025438;28;20017;-50
2021/01/05 05:28:57;;;;;;;24.63;12.23;;;;;;;;;;5027260;28;20163;-49
2021/01/05 05:31:25;;;;;;;21.20;11.27;;;;;;;;;;5026079;28;20057;-51
2021/01/05 05:33:53;;;;;;;22.00;11.60;;;;;;;;;;5028330;28;20481;-49
2021/01/05 05:36:37;;;;;;;20.17;10.88;;;;;;;;;;5026947;28;20559;-50
2021/01/05 05:39:11;;;;;;;19.50;11.35;;;;;;;;;;5021308;28;20144;-48
2021/01/05 05:42:04;;;;;;;21.60;12.05;;;;;;;;;;5026769;28;20053;-49
2021/01/05 05:44:51;;;;;;;20.90;10.70;;;;;;;;;;5027238;28;20755;-48
2021/01/05 05:47:23;;;;;;;22.48;11.23;;;;;;;;;;5026711;28;20033;-48
2021/01/05 05:49:55;;;;;;;21.83;11.02;;;;;;;;;;5021104;28;20057;-50
2021/01/05 05:52:24;;;;;;;20.77;11.55;;;;;;;;;;5007369;28;20022;-48
2021/01/05 05:54:50;;;;;;;20.60;10.82;;;;;;;;;;5007181;28;20628;-50
2021/01/05 05:57:35;;;;;;;20.48;11.20;;;;;;;;;;5013611;28;20018;-48
2021/01/05 06:00:10;;;;;;;22.15;11.63;;;;;;;;;;5026298;28;20044;-50
2021/01/05 06:02:36;;;;;;;20.70;11.40;;;;;;;;;;5026475;28;20056;-48
2021/01/05 06:05:05;;;;;;;20.45;10.80;;;;;;;;;;5028820;28;20116;-48
2021/01/05 06:07:31;;;;;;;22.67;11.38;;;;;;;;;;5030538;28;20048;-49
2021/01/05 06:09:57;;;;;;;24.02;12.07;;;;;;;;;;5029694;28;20026;-49
2021/01/05 06:12:23;;;;;;;20.30;11.90;;;;;;;;;;5030800;28;20022;-51
2021/01/05 06:14:49;;;;;;;22.33;11.95;;;;;;;;;;5030354;28;20021;-48
2021/01/05 06:17:15;;;;;;;20.10;11.23;;;;;;;;;;5029394;28;20037;-52
2021/01/05 06:19:41;;;;;;;21.50;11.25;;;;;;;;;;5030063;28;20053;-47
2021/01/05 06:22:07;;;;;;;18.92;11.18;;;;;;;;;;5030200;28;20390;-48
2021/01/05 06:24:33;;;;;;;23.27;11.57;;;;;;;;;;5031636;28;20049;-49
2021/01/05 06:26:58;;;;;;;22.33;11.63;;;;;;;;;;5012324;28;20458;-49
2021/01/05 06:29:24;;;;;;;22.55;12.02;;;;;;;;;;5026155;28;20033;-51
2021/01/05 06:31:50;;;;;;;18.50;10.63;;;;;;;;;;5030199;28;20041;-52
2021/01/05 06:34:16;;;;;;;18.73;10.65;;;;;;;;;;5034879;28;20022;-51
2021/01/05 06:36:42;;;;;;;21.15;11.52;;;;;;;;;;5030476;28;20370;-49
2021/01/05 06:39:09;;;;;;;21.77;11.63;;;;;;;;;;5030156;28;20755;-50
2021/01/05 06:41:35;;;;;;;20.05;11.20;;;;;;;;;;5029811;28;20097;-49
2021/01/05 06:44:01;;;;;;;22.17;11.90;;;;;;;;;;5030633;28;20037;-51
2021/01/05 06:46:27;;;;;;;24.63;11.80;;;;;;;;;;5028613;28;20025;-48
2021/01/05 06:48:53;;;;;;;23.15;12.38;;;;;;;;;;5029019;28;20060;-50
2021/01/05 06:51:19;;;;;;;25.98;13.32;;;;;;;;;;5029522;28;20029;-51
2021/01/05 06:53:45;;;;;;;24.35;12.90;;;;;;;;;;5027773;28;20040;-50
2021/01/05 06:56:14;;;;;;;39.90;19.90;;;;;;;;;;5024365;28;20041;-54
2021/01/05 06:58:40;;;;;;;22.52;12.82;;;;;;;;;;5025057;28;20033;-50
2021/01/05 07:01:06;;;;;;;28.10;13.00;;;;;;;;;;5028476;28;20029;-47
2021/01/05 07:03:32;;;;;;;24.67;12.88;;;;;;;;;;5030051;28;20032;-48
2021/01/05 07:05:58;;;;;;;26.10;13.02;;;;;;;;;;5029674;28;20091;-49
2021/01/05 07:08:25;;;;;;;28.65;12.98;;;;;;;;;;5027953;28;20385;-49
2021/01/05 07:10:51;;;;;;;22.52;12.40;;;;;;;;;;5028448;28;20029;-53
2021/01/05 07:13:17;;;;;;;25.20;13.18;;;;;;;;;;5030621;28;20021;-48
2021/01/05 07:15:42;;;;;;;26.35;12.82;;;;;;;;;;5028516;28;20036;-50
2021/01/05 07:18:09;;;;;;;30.58;15.05;;;;;;;;;;5028728;28;20034;-50
2021/01/05 07:20:35;;;;;;;30.63;14.15;;;;;;;;;;5016209;28;20133;-51
2021/01/05 07:23:01;;;;;;;29.60;14.18;;;;;;;;;;5027481;28;20030;-48
2021/01/05 07:25:27;;;;;;;30.70;15.75;;;;;;;;;;5026781;28;20029;-51
2021/01/05 07:27:53;;;;;;;28.67;14.50;;;;;;;;;;5028744;28;20056;-50
2021/01/05 07:30:19;;;;;;;31.23;15.15;;;;;;;;;;5029414;28;20092;-48
2021/01/05 07:32:45;;;;;;;32.28;14.98;;;;;;;;;;5029124;28;20052;-48
2021/01/05 07:35:12;;;;;;;33.33;15.60;;;;;;;;;;5032785;28;20052;-50
2021/01/05 07:37:39;;;;;;;27.20;13.73;;;;;;;;;;5023951;28;20100;-51
2021/01/05 07:40:07;;;;;;;34.38;15.38;;;;;;;;;;5024228;28;20049;-53
2021/01/05 07:42:33;;;;;;;32.63;15.93;;;;;;;;;;5028462;28;20037;-49
2021/01/05 07:45:01;;;;;;;33.78;15.80;;;;;;;;;;5026750;28;20067;-51
2021/01/05 07:47:34;;;;;;;31.70;15.00;;;;;;;;;;5025515;28;20021;-50
2021/01/05 07:50:00;;;;;;;48.63;22.80;;;;;;;;;;5026335;28;20037;-52
2021/01/05 07:52:26;;;;;;;30.75;15.57;;;;;;;;;;5029487;28;20033;-48
2021/01/05 07:54:52;;;;;;;34.58;15.40;;;;;;;;;;5028800;28;20473;-52
2021/01/05 07:57:18;;;;;;;28.80;14.70;;;;;;;;;;5018845;28;20093;-51
2021/01/05 07:59:44;;;;;;;33.83;15.80;;;;;;;;;;5025228;28;20458;-49
2021/01/05 08:02:10;;;;;;;39.60;20.35;;;;;;;;;;5023714;28;20091;-49
2021/01/05 08:04:37;;;;;;;31.58;15.50;;;;;;;;;;5027848;28;20026;-53
2021/01/05 08:07:03;;;;;;;31.08;15.07;;;;;;;;;;5027508;28;20674;-49
2021/01/05 08:09:29;;;;;;;31.45;16.20;;;;;;;;;;5025798;28;20025;-48
2021/01/05 08:11:55;;;;;;;38.72;16.75;;;;;;;;;;5026764;28;20072;-48
2021/01/05 08:14:21;;;;;;;32.60;15.25;;;;;;;;;;5023928;28;20040;-51
2021/01/05 08:16:50;;;;;;;33.40;15.48;;;;;;;;;;5021113;28;20018;-51
2021/01/05 08:19:16;;;;;;;32.45;15.18;;;;;;;;;;5026760;28;20059;-48
2021/01/05 08:21:42;;;;;;;30.40;14.90;;;;;;;;;;5028274;28;20037;-48
2021/01/05 08:24:08;;;;;;;29.75;15.43;;;;;;;;;;5019325;28;20037;-50
2021/01/05 08:26:34;;;;;;;31.90;15.10;;;;;;;;;;5027086;28;20098;-48
2021/01/05 08:29:00;;;;;;;30.05;14.77;;;;;;;;;;5022125;28;20037;-48
2021/01/05 08:31:36;;;;;;;32.47;15.38;;;;;;;;;;5023386;28;20044;-49
2021/01/05 08:34:03;;;;;;;35.70;15.88;;;;;;;;;;5024731;28;20029;-48
2021/01/05 08:36:29;;;;;;;35.35;17.98;;;;;;;;;;5018774;28;20055;-48
2021/01/05 08:38:55;;;;;;;33.92;16.25;;;;;;;;;;5026871;28;20105;-47
2021/01/05 08:41:21;;;;;;;34.28;15.50;;;;;;;;;;5024449;28;20517;-49
2021/01/05 08:43:47;;;;;;;30.25;15.32;;;;;;;;;;5026269;28;20080;-48
2021/01/05 08:46:21;;;;;;;34.58;15.65;;;;;;;;;;5023520;28;20034;-49
2021/01/05 08:48:47;;;;;;;;;;;;;;;;;;5026292;28;20051;-48
2021/01/05 08:51:13;;;;;;;32.05;15.45;;;;;;;;;;5024331;28;20422;-50
2021/01/05 08:53:39;;;;;;;34.88;17.55;;;;;;;;;;5025414;28;20048;-52
2021/01/05 08:56:05;;;;;;;32.22;15.15;;;;;;;;;;5024131;28;20029;-48
2021/01/05 08:58:31;;;;;;;30.83;15.20;;;;;;;;;;5024633;28;20124;-52
2021/01/05 09:00:57;;;;;;;31.67;14.50;;;;;;;;;;5025831;28;20044;-49
2021/01/05 09:03:22;;;;;;;34.70;16.98;;;;;;;;;;5026004;28;20030;-48
2021/01/05 09:05:48;;;;;;;39.05;20.25;;;;;;;;;;5017388;28;20045;-49
2021/01/05 09:08:15;;;;;;;40.08;19.30;;;;;;;;;;5022554;28;20071;-53
2021/01/05 09:10:41;;;;;;;50.45;25.27;;;;;;;;;;5026173;28;20037;-50
2021/01/05 09:13:07;;;;;;;35.53;15.73;;;;;;;;;;5018108;28;20033;-49
2021/01/05 09:15:33;;;;;;;30.65;14.98;;;;;;;;;;5019487;28;20388;-52
2021/01/05 09:18:02;;;;;;;32.47;15.65;;;;;;;;;;5018830;28;20025;-51
2021/01/05 09:20:28;;;;;;;30.60;14.50;;;;;;;;;;5026714;28;20033;-53
2021/01/05 09:22:55;;;;;;;29.15;14.85;;;;;;;;;;5025749;28;20053;-53
2021/01/05 09:25:21;;;;;;;29.38;15.45;;;;;;;;;;5024245;28;20033;-49
2021/01/05 09:27:50;;;;;;;32.88;15.73;;;;;;;;;;5021578;28;20033;-48
2021/01/05 09:30:17;;;;;;;30.65;15.30;;;;;;;;;;5021534;28;20048;-50
2021/01/05 09:32:43;;;;;;;32.75;15.30;;;;;;;;;;5023276;28;20045;-52
2021/01/05 09:35:09;;;;;;;30.30;15.98;;;;;;;;;;5026340;28;20618;-54
2021/01/05 09:37:35;;;;;;;32.55;14.95;;;;;;;;;;5026979;28;20057;-51
2021/01/05 09:40:01;;;;;;;29.80;15.88;;;;;;;;;;5027625;28;20026;-48
2021/01/05 09:42:30;;;;;;;29.95;14.95;;;;;;;;;;5029250;28;20025;-51
2021/01/05 09:44:56;;;;;;;28.20;13.10;;;;;;;;;;5030620;28;20022;-51
2021/01/05 09:47:23;;;;;;;29.50;15.25;;;;;;;;;;5030435;28;20027;-53
2021/01/05 09:49:49;;;;;;;27.27;13.27;;;;;;;;;;5029708;28;20022;-49
2021/01/05 09:52:16;;;;;;;27.98;13.35;;;;;;;;;;5030707;28;20049;-48
2021/01/05 09:54:47;;;;;;;29.85;15.20;;;;;;;;;;5035447;28;20030;-52
2021/01/05 09:57:13;;;;;;;27.80;13.15;;;;;;;;;;5026668;28;20672;-55
2021/01/05 09:59:39;;;;;;;29.25;13.10;;;;;;;;;;5030038;28;20029;-48
2021/01/05 10:02:05;;;;;;;26.02;13.50;;;;;;;;;;5029173;28;20033;-49
2021/01/05 10:04:31;;;;;;;24.88;12.35;;;;;;;;;;5030693;28;20476;-52
2021/01/05 10:06:57;;;;;;;25.85;12.57;;;;;;;;;;5031366;28;20029;-51
2021/01/05 10:09:23;;;;;;;30.73;16.48;;;;;;;;;;5029747;28;20029;-49
2021/01/05 10:11:49;;;;;;;25.58;13.35;;;;;;;;;;5030290;28;20042;-49
2021/01/05 10:14:17;;;;;;;25.63;14.00;;;;;;;;;;5024130;28;20108;-50
2021/01/05 10:16:43;;;;;;;24.80;12.38;;;;;;;;;;5026375;28;20037;-49
2021/01/05 10:19:15;;;;;;;23.25;12.73;;;;;;;;;;5024905;28;20685;-53
2021/01/05 10:21:42;;;;;;;28.42;14.02;;;;;;;;;;5029681;28;20056;-48
2021/01/05 10:24:09;;;;;;;26.98;13.70;;;;;;;;;;5028955;28;20436;-49
2021/01/05 10:26:35;;;;;;;24.25;12.85;;;;;;;;;;5029008;28;20033;-53
2021/01/05 10:29:02;;;;;;;26.20;13.23;;;;;;;;;;5029372;28;20684;-50
2021/01/05 10:31:35;;;;;;;24.02;12.27;;;;;;;;;;5029413;28;20539;-48
2021/01/05 10:34:01;;;;;;;20.45;11.63;;;;;;;;;;5038064;28;20423;-49
2021/01/05 10:36:27;;;;;;;24.27;11.50;;;;;;;;;;5019859;28;20026;-50
2021/01/05 10:38:53;;;;;;;20.70;11.85;;;;;;;;;;5029902;28;20029;-49
2021/01/05 10:41:19;;;;;;;25.77;13.15;;;;;;;;;;5033589;28;20044;-51
2021/01/05 10:43:45;;;;;;;21.38;11.70;;;;;;;;;;5029595;28;20028;-49
2021/01/05 10:46:12;;;;;;;22.60;12.02;;;;;;;;;;5029229;28;20075;-51
2021/01/05 10:48:38;;;;;;;21.70;11.88;;;;;;;;;;5028612;28;20503;-50
2021/01/05 10:51:04;;;;;;;25.70;13.57;;;;;;;;;;5027429;28;20029;-49
2021/01/05 10:53:31;;;;;;;27.08;14.68;;;;;;;;;;5020491;28;20090;-48
2021/01/05 10:55:57;;;;;;;22.35;11.73;;;;;;;;;;5028366;28;20041;-47
2021/01/05 10:58:23;;;;;;;26.77;12.68;;;;;;;;;;5029425;28;20018;-51
2021/01/05 11:00:50;;;;;;;21.13;12.07;;;;;;;;;;5028077;28;20377;-50
2021/01/05 11:03:16;;;;;;;23.80;11.98;;;;;;;;;;5026856;28;20060;-50
2021/01/05 11:05:42;;;;;;;26.25;12.95;;;;;;;;;;5027163;28;20039;-49
2021/01/05 11:08:08;;;;;;;21.42;11.40;;;;;;;;;;5013356;28;20628;-48
2021/01/05 11:10:34;;;;;;;22.42;12.13;;;;;;;;;;5019753;28;20389;-50
2021/01/05 11:13:00;;;;;;;25.80;11.00;;;;;;;;;;5027142;28;20041;-50
2021/01/05 11:15:26;;;;;;;21.70;11.48;;;;;;;;;;5026176;28;20037;-52
2021/01/05 11:17:52;;;;;;;27.80;16.67;;;;;;;;;;5022115;28;20018;-50
2021/01/05 11:20:19;;;;;;;24.80;11.27;;;;;;;;;;5022587;28;20037;-49
2021/01/05 11:22:44;;;;;;;23.50;12.77;;;;;;;;;;5017567;28;20052;-52
2021/01/05 11:25:14;;;;;;;28.88;12.02;;;;;;;;;;5026834;28;20029;-50
2021/01/05 11:27:40;;;;;;;25.23;11.88;;;;;;;;;;5024298;28;20079;-51
2021/01/05 11:30:07;;;;;;;26.85;11.77;;;;;;;;;;5027051;28;20492;-48
2021/01/05 11:32:33;;;;;;;22.08;11.32;;;;;;;;;;5027918;28;20021;-55
2021/01/05 11:34:59;;;;;;;21.58;11.02;;;;;;;;;;5029148;28;20393;-48
2021/01/05 11:37:25;;;;;;;23.42;12.05;;;;;;;;;;5027518;28;20030;-49
2021/01/05 11:39:53;;;;;;;22.90;11.35;;;;;;;;;;5021066;28;20040;-48
2021/01/05 11:42:20;;;;;;;22.58;11.57;;;;;;;;;;5025577;28;20094;-52
2021/01/05 11:44:46;;;;;;;22.30;11.57;;;;;;;;;;5026667;28;20140;-49
2021/01/05 11:47:16;;;;;;;22.08;11.70;;;;;;;;;;5025266;28;20036;-49
2021/01/05 11:49:42;;;;;;;20.45;11.82;;;;;;;;;;5025075;28;20045;-50
2021/01/05 11:52:08;;;;;;;25.15;11.32;;;;;;;;;;5026857;28;20047;-48
2021/01/05 11:54:34;;;;;;;22.92;11.65;;;;;;;;;;5032418;28;20032;-50
2021/01/05 11:57:01;;;;;;;19.83;10.98;;;;;;;;;;5028940;28;20029;-52
2021/01/05 11:59:28;;;;;;;20.88;10.90;;;;;;;;;;5027982;28;20049;-48
2021/01/05 12:01:55;;;;;;;24.83;11.13;;;;;;;;;;5026244;28;20037;-51
2021/01/05 12:04:21;;;;;;;22.75;11.18;;;;;;;;;;5025614;28;20041;-52
2021/01/05 12:06:50;;;;;;;22.90;11.23;;;;;;;;;;5035654;28;20086;-50
2021/01/05 12:09:17;;;;;;;25.00;12.20;;;;;;;;;;5025692;28;20127;-49
2021/01/05 12:11:44;;;;;;;23.60;11.48;;;;;;;;;;5023042;28;20028;-47
2021/01/05 12:14:10;;;;;;;23.60;11.50;;;;;;;;;;5026006;28;20053;-51
2021/01/05 12:16:37;;;;;;;21.15;10.80;;;;;;;;;;5015988;28;20041;-51
2021/01/05 12:19:06;;;;;;;22.00;11.02;;;;;;;;;;5025961;28;20025;-47
2021/01/05 12:21:33;;;;;;;20.85;11.88;;;;;;;;;;5026640;28;20696;-50
2021/01/05 12:23:59;;;;;;;21.77;10.80;;;;;;;;;;5024756;28;20060;-50
2021/01/05 12:26:44;;;;;;;20.67;10.93;;;;;;;;;;5027142;28;20053;-48
2021/01/05 12:29:12;;;;;;;19.70;10.15;;;;;;;;;;5027279;28;20079;-49
2021/01/05 12:31:43;;;;;;;21.10;11.05;;;;;;;;;;5020804;28;20065;-48
2021/01/05 12:34:10;;;;;;;20.42;10.43;;;;;;;;;;5024998;28;20014;-48
2021/01/05 12:36:37;;;;;;;20.00;10.43;;;;;;;;;;5019484;28;20032;-52
2021/01/05 12:39:03;;;;;;;23.05;11.02;;;;;;;;;;5019991;28;20059;-51
2021/01/05 12:41:31;;;;;;;21.70;11.13;;;;;;;;;;5026123;28;20907;-48
2021/01/05 12:43:57;;;;;;;19.40;10.43;;;;;;;;;;5019778;28;20045;-51
2021/01/05 12:46:27;;;;;;;21.42;10.60;;;;;;;;;;5021667;28;20116;-51
2021/01/05 12:48:53;;;;;;;20.05;10.88;;;;;;;;;;5025527;28;20029;-52
2021/01/05 12:51:29;;;;;;;21.17;11.23;;;;;;;;;;5026606;28;20035;-47
2021/01/05 12:53:56;;;;;;;23.33;10.77;;;;;;;;;;5026103;28;20059;-49
2021/01/05 12:56:22;;;;;;;23.58;11.93;;;;;;;;;;5022492;28;20026;-53
2021/01/05 12:58:48;;;;;;;21.33;11.15;;;;;;;;;;5016927;28;20025;-53
2021/01/05 13:01:15;;;;;;;28.80;15.27;;;;;;;;;;5026775;28;20029;-50
2021/01/05 13:03:41;;;;;;;23.77;11.48;;;;;;;;;;5026700;28;20051;-48
2021/01/05 13:06:07;;;;;;;20.95;10.27;;;;;;;;;;5015963;28;20477;-48
2021/01/05 13:08:33;;;;;;;18.95;10.45;;;;;;;;;;5026595;28;20060;-51
2021/01/05 13:10:59;;;;;;;22.15;10.98;;;;;;;;;;5020854;28;20052;-48
2021/01/05 13:13:25;;;;;;;21.45;11.23;;;;;;;;;;5022436;28;20037;-53
2021/01/05 13:15:51;;;;;;;19.30;9.93;;;;;;;;;;5025273;28;20033;-51
2021/01/05 13:18:17;;;;;;;26.63;10.50;;;;;;;;;;5026144;28;20845;-49
2021/01/05 13:20:43;;;;;;;23.02;10.50;;;;;;;;;;5024525;28;20033;-51
2021/01/05 13:23:09;;;;;;;18.13;10.15;;;;;;;;;;5025555;28;20041;-52
2021/01/05 13:25:34;;;;;;;20.45;11.25;;;;;;;;;;5024992;28;20021;-48
2021/01/05 13:28:00;;;;;;;23.40;10.80;;;;;;;;;;5024831;28;20041;-51
2021/01/05 13:30:27;;;;;;;21.85;10.82;;;;;;;;;;5024202;28;20025;-50
2021/01/05 13:32:52;;;;;;;18.70;10.43;;;;;;;;;;5012868;28;20551;-50
2021/01/05 13:35:18;;;;;;;20.40;11.40;;;;;;;;;;5027462;28;20022;-49
2021/01/05 13:37:44;;;;;;;23.02;11.50;;;;;;;;;;5022491;28;20389;-48
2021/01/05 13:40:11;;;;;;;22.95;10.77;;;;;;;;;;5022975;28;20022;-48
2021/01/05 13:42:36;;;;;;;20.33;10.20;;;;;;;;;;5026028;28;20025;-55
2021/01/05 13:45:03;;;;;;;23.15;11.10;;;;;;;;;;5024833;28;20381;-54
2021/01/05 13:47:30;;;;;;;28.17;11.32;;;;;;;;;;5026474;28;20025;-52
2021/01/05 13:49:56;;;;;;;23.63;11.32;;;;;;;;;;5026007;28;20117;-47
2021/01/05 13:52:23;;;;;;;25.98;11.88;;;;;;;;;;5022003;28;20091;-48
2021/01/05 13:54:49;;;;;;;18.35;10.05;;;;;;;;;;5026068;28;20030;-49
2021/01/05 13:57:17;;;;;;;20.25;9.88;;;;;;;;;;5018904;28;20025;-48
2021/01/05 13:59:43;;;;;;;27.83;13.88;;;;;;;;;;5026265;28;20037;-49
2021/01/05 14:02:09;;;;;;;24.27;11.27;;;;;;;;;;5024677;28;20520;-47
2021/01/05 14:04:35;;;;;;;21.60;11.20;;;;;;;;;;5016134;28;20029;-48
2021/01/05 14:07:02;;;;;;;22.52;11.23;;;;;;;;;;5019684;28;20030;-48
2021/01/05 14:09:28;;;;;;;24.70;11.85;;;;;;;;;;5022556;28;20033;-48
2021/01/05 14:11:55;;;;;;;27.80;12.00;;;;;;;;;;5022230;28;20030;-48
2021/01/05 14:14:21;;;;;;;21.38;10.75;;;;;;;;;;5013820;28;20033;-50
2021/01/05 14:16:49;;;;;;;22.27;11.38;;;;;;;;;;5019394;28;20769;-47
2021/01/05 14:19:14;;;;;;;23.92;12.27;;;;;;;;;;5025912;28;20033;-50
2021/01/05 14:21:40;;;;;;;20.02;11.57;;;;;;;;;;5021086;28;20041;-51
2021/01/05 14:24:33;;;;;;;25.27;11.45;;;;;;;;;;5020314;28;20018;-49